createdAt,value
2022-09-18T00:01:39.455Z,96429.02
2022-09-18T00:04:16.100Z,96424.06
2022-09-18T00:06:50.303Z,96423.39
2022-09-18T00:09:26.782Z,96423.60
2022-09-18T00:12:02.651Z,96420.49
2022-09-18T00:14:36.520Z,96417.02
2022-09-18T00:17:10.821Z,96419.30
2022-09-18T00:19:44.927Z,96415.56
2022-09-18T00:22:19.108Z,96414.23
2022-09-18T00:24:53.611Z,96416.25
2022-09-18T00:27:29.220Z,96413.17
2022-09-18T00:30:03.161Z,96411.76
2022-09-18T00:32:37.400Z,96405.80
2022-09-18T00:36:13.614Z,96404.38
2022-09-18T00:39:50.933Z,96406.77
2022-09-18T00:43:28.473Z,96408.82
2022-09-18T00:47:08.037Z,96414.83
2022-09-18T00:50:05.728Z,96414.36
2022-09-18T00:52:48.032Z,96418.40
2022-09-18T00:55:26.068Z,96414.14
2022-09-18T00:58:02.733Z,96415.15
2022-09-18T01:00:37.466Z,96412.73
2022-09-18T01:03:11.315Z,96412.70
2022-09-18T01:06:00.787Z,96415.46
2022-09-18T01:08:46.013Z,96413.21
2022-09-18T01:11:30.470Z,96408.58
2022-09-18T01:14:20.378Z,96412.73
2022-09-18T01:16:59.511Z,96409.64
2022-09-18T01:20:03.627Z,96412.73
2022-09-18T01:22:53.943Z,96410.81
2022-09-18T01:25:39.343Z,96409.98
2022-09-18T01:28:21.700Z,96408.63
2022-09-18T01:30:59.790Z,96408.90
2022-09-18T01:33:40.268Z,96405.77
2022-09-18T01:36:17.779Z,96407.36
2022-09-18T01:38:56.579Z,96408.24
2022-09-18T01:41:32.438Z,96408.75
2022-09-18T01:44:11.933Z,96413.48
2022-09-18T01:46:48.114Z,96412.58
2022-09-18T01:49:28.246Z,96411.91
2022-09-18T01:52:09.582Z,96414.05
2022-09-18T01:54:47.540Z,96414.40
2022-09-18T01:57:26.680Z,96413.10
2022-09-18T02:00:07.490Z,96415.73
2022-09-18T02:03:32.534Z,96415.56
2022-09-18T02:06:15.735Z,96418.23
2022-09-18T02:08:51.900Z,96417.30
2022-09-18T02:11:27.288Z,96419.98
2022-09-18T02:14:07.579Z,96418.39
2022-09-18T02:17:03.798Z,96417.79
2022-09-18T02:19:43.302Z,96417.95
2022-09-18T02:22:24.907Z,96417.33
2022-09-18T02:25:02.148Z,96416.66
2022-09-18T02:27:39.813Z,96411.83
2022-09-18T02:30:14.618Z,96408.95
2022-09-18T02:32:48.549Z,96406.91
2022-09-18T02:35:22.932Z,96409.91
2022-09-18T02:38:06.898Z,96411.77
2022-09-18T02:40:52.521Z,96413.60
2022-09-18T02:43:41.044Z,96416.87
2022-09-18T02:46:24.680Z,96416.79
2022-09-18T02:49:10.647Z,96420.14
2022-09-18T02:51:54.596Z,96419.27
2022-09-18T02:54:35.587Z,96418.36
2022-09-18T02:57:16.387Z,96426.10
2022-09-18T02:59:53.967Z,96426.86
2022-09-18T03:02:30.229Z,96427.95
2022-09-18T03:05:19.788Z,96431.77
2022-09-18T03:08:00.939Z,96425.20
2022-09-18T03:10:36.071Z,96429.94
2022-09-18T03:13:11.027Z,96429.44
2022-09-18T03:15:45.170Z,96429.44
2022-09-18T03:18:19.325Z,96429.77
2022-09-18T03:20:53.396Z,96433.09
2022-09-18T03:23:27.642Z,96433.52
2022-09-18T03:26:11.132Z,96430.04
2022-09-18T03:28:46.256Z,96435.79
2022-09-18T03:31:21.292Z,96434.94
2022-09-18T03:33:56.149Z,96436.66
2022-09-18T03:36:30.124Z,96435.27
2022-09-18T03:39:04.953Z,96438.91
2022-09-18T03:41:39.204Z,96436.33
2022-09-18T03:44:15.212Z,96442.81
2022-09-18T03:46:50.963Z,96441.46
2022-09-18T03:49:27.482Z,96439.92
2022-09-18T03:52:02.039Z,96439.30
2022-09-18T03:54:39.997Z,96440.44
2022-09-18T03:57:50.059Z,96437.86
2022-09-18T04:00:44.375Z,96438.39
2022-09-18T04:03:21.572Z,96444.48
2022-09-18T04:06:21.876Z,96446.27
2022-09-18T04:09:10.115Z,96449.46
2022-09-18T04:11:49.844Z,96456.61
2022-09-18T04:14:29.821Z,96458.67
2022-09-18T04:17:04.797Z,96460.53
2022-09-18T04:19:38.757Z,96462.48
2022-09-18T04:22:15.234Z,96463.52
2022-09-18T04:24:50.893Z,96464.08
2022-09-18T04:27:25.078Z,96465.52
2022-09-18T04:30:01.725Z,96470.65
2022-09-18T04:32:36.299Z,96473.24
2022-09-18T04:35:12.517Z,96472.44
2022-09-18T04:38:37.164Z,96478.47
2022-09-18T04:42:12.636Z,96484.49
2022-09-18T04:45:46.708Z,96486.73
2022-09-18T04:49:21.602Z,96492.14
2022-09-18T04:51:56.069Z,96490.52
2022-09-18T04:54:31.488Z,96488.76
2022-09-18T04:57:05.659Z,96492.91
2022-09-18T04:59:39.905Z,96496.48
2022-09-18T05:02:13.535Z,96496.17
2022-09-18T05:04:47.753Z,96496.29
2022-09-18T05:08:23.252Z,96499.30
2022-09-18T05:12:03.396Z,96498.46
2022-09-18T05:19:04.769Z,96506.34
2022-09-18T05:21:42.621Z,96508.88
2022-09-18T05:24:18.181Z,96502.98
2022-09-18T05:26:52.569Z,96504.91
2022-09-18T05:29:28.351Z,96501.38
2022-09-18T05:32:08.151Z,96505.23
2022-09-18T05:34:43.589Z,96505.41
2022-09-18T05:38:18.574Z,96508.61
2022-09-18T05:41:56.604Z,96508.80
2022-09-18T05:45:24.623Z,96511.98
2022-09-18T05:48:56.604Z,96512.70
2022-09-18T05:51:30.763Z,96519.15
2022-09-18T05:54:05.087Z,96517.04
2022-09-18T05:56:49.459Z,96518.48
2022-09-18T05:59:23.649Z,96519.19
2022-09-18T06:02:01.478Z,96518.34
2022-09-18T06:04:57.276Z,96520.63
2022-09-18T06:07:31.178Z,96524.77
2022-09-18T06:10:05.547Z,96527.09
2022-09-18T06:12:39.721Z,96524.27
2022-09-18T06:15:18.337Z,96523.25
2022-09-18T06:17:57.162Z,96526.30
2022-09-18T06:20:31.674Z,96526.04
2022-09-18T06:23:07.598Z,96530.08
2022-09-18T06:26:03.716Z,96533.13
2022-09-18T06:28:38.913Z,96541.28
2022-09-18T06:31:14.677Z,96549.89
2022-09-18T06:34:04.788Z,96553.41
2022-09-18T06:36:39.344Z,96554.57
2022-09-18T06:39:30.579Z,96554.93
2022-09-18T06:42:07.204Z,96552.87
2022-09-18T06:45:06.514Z,96551.19
2022-09-18T06:47:41.307Z,96545.89
2022-09-18T06:50:15.603Z,96546.27
2022-09-18T06:53:51.854Z,96550.70
2022-09-18T06:57:19.323Z,96549.29
2022-09-18T07:00:54.467Z,96549.23
2022-09-18T07:04:30.497Z,96546.39
2022-09-18T07:07:05.903Z,96548.64
2022-09-18T07:09:39.942Z,96549.81
2022-09-18T07:12:22.961Z,96551.46
2022-09-18T07:15:00.547Z,96550.66
2022-09-18T07:17:35.968Z,96553.40
2022-09-18T07:20:11.923Z,96555.08
2022-09-18T07:22:54.513Z,96557.10
2022-09-18T07:25:30.651Z,96564.23
2022-09-18T07:28:09.842Z,96566.13
2022-09-18T07:30:48.643Z,96561.79
2022-09-18T07:33:36.012Z,96564.48
2022-09-18T07:37:11.945Z,96563.27
2022-09-18T07:40:43.168Z,96561.94
2022-09-18T07:44:19.351Z,96562.11
2022-09-18T07:51:15.732Z,96561.88
2022-09-18T07:53:50.007Z,96560.73
2022-09-18T07:56:29.468Z,96565.39
2022-09-18T07:59:01.091Z,96564.70
2022-09-18T08:01:37.223Z,96568.51
2022-09-18T08:04:10.231Z,96571.02
2022-09-18T08:07:40.150Z,96570.14
2022-09-18T08:11:10.864Z,96571.66
2022-09-18T08:14:48.894Z,96572.55
2022-09-18T08:21:20.869Z,96569.21
2022-09-18T08:23:55.599Z,96572.65
2022-09-18T08:26:28.082Z,96576.73
2022-09-18T08:28:59.351Z,96575.60
2022-09-18T08:31:32.174Z,96576.88
2022-09-18T08:34:04.614Z,96574.48
2022-09-18T08:37:37.423Z,96574.52
2022-09-18T08:41:18.239Z,96568.69
2022-09-18T08:44:54.853Z,96565.81
2022-09-18T08:48:55.447Z,96563.37
2022-09-18T08:51:32.007Z,96557.45
2022-09-18T08:54:19.535Z,96554.21
2022-09-18T08:57:25.597Z,96552.49
2022-09-18T09:00:22.990Z,96553.52
2022-09-18T09:03:43.497Z,96556.91
2022-09-18T09:06:27.473Z,96554.77
2022-09-18T09:09:32.694Z,96555.40
2022-09-18T09:12:12.729Z,96556.44
2022-09-18T09:15:05.629Z,96554.31
2022-09-18T09:17:49.088Z,96555.90
2022-09-18T09:20:24.487Z,96555.66
2022-09-18T09:23:07.767Z,96555.90
2022-09-18T09:25:49.192Z,96554.75
2022-09-18T09:28:43.427Z,96555.37
2022-09-18T09:31:26.963Z,96551.27
2022-09-18T09:34:15.069Z,96551.67
2022-09-18T09:37:52.594Z,96548.65
2022-09-18T09:41:32.486Z,96552.48
2022-09-18T09:45:33.725Z,96555.96
2022-09-18T09:49:33.732Z,96561.91
2022-09-18T09:52:35.852Z,96558.33
2022-09-18T09:55:26.677Z,96561.95
2022-09-18T09:58:11.413Z,96562.92
2022-09-18T10:00:51.591Z,96564.09
2022-09-18T10:03:42.422Z,96564.64
2022-09-18T10:06:29.510Z,96564.36
2022-09-18T10:10:06.546Z,96556.58
2022-09-18T10:13:42.683Z,96558.05
2022-09-18T10:20:44.205Z,96557.28
2022-09-18T10:23:24.796Z,96554.42
2022-09-18T10:26:00.811Z,96560.67
2022-09-18T10:28:33.453Z,96563.34
2022-09-18T10:31:10.707Z,96562.05
2022-09-18T10:33:47.683Z,96564.70
2022-09-18T10:36:38.953Z,96565.36
2022-09-18T10:39:38.822Z,96569.69
2022-09-18T10:42:18.392Z,96572.13
2022-09-18T10:45:01.675Z,96566.72
2022-09-18T10:47:37.928Z,96566.40
2022-09-18T10:50:21.219Z,96567.46
2022-09-18T10:52:54.813Z,96571.84
2022-09-18T10:55:35.914Z,96570.39
2022-09-18T10:58:16.299Z,96570.54
2022-09-18T11:01:04.062Z,96563.28
2022-09-18T11:03:59.300Z,96562.13
2022-09-18T11:07:32.519Z,96562.93
2022-09-18T11:11:08.648Z,96567.27
2022-09-18T11:21:29.937Z,96571.48
2022-09-18T11:24:22.965Z,96575.11
2022-09-18T11:26:56.921Z,96581.62
2022-09-18T11:29:34.205Z,96579.66
2022-09-18T11:32:17.250Z,96579.15
2022-09-18T11:34:53.546Z,96578.36
2022-09-18T11:37:34.419Z,96574.34
2022-09-18T11:40:09.723Z,96578.42
2022-09-18T11:42:46.976Z,96573.66
2022-09-18T11:45:28.194Z,96571.42
2022-09-18T11:48:08.949Z,96572.49
2022-09-18T11:50:41.791Z,96567.73
2022-09-18T11:53:15.594Z,96575.38
2022-09-18T11:55:52.009Z,96572.66
2022-09-18T11:58:29.004Z,96573.40
2022-09-18T12:01:10.669Z,96574.21
2022-09-18T12:03:49.445Z,96575.94
2022-09-18T12:06:41.683Z,96579.30
2022-09-18T12:10:19.921Z,96579.82
2022-09-18T12:13:59.653Z,96579.27
2022-09-18T12:28:09.157Z,96571.46
2022-09-18T12:40:54.340Z,96601.98
2022-09-18T12:43:51.290Z,96604.16
2022-09-18T12:46:40.035Z,96604.98
2022-09-18T12:49:31.644Z,96604.86
2022-09-18T12:52:19.683Z,96600.52
2022-09-18T12:55:18.565Z,96601.27
2022-09-18T12:58:04.515Z,96605.70
2022-09-18T13:00:45.482Z,96607.52
2022-09-18T13:03:27.934Z,96609.66
2022-09-18T13:06:07.817Z,96612.73
2022-09-18T13:09:50.299Z,96620.67
2022-09-18T13:13:45.493Z,96620.86
2022-09-18T13:20:51.305Z,96626.25
2022-09-18T13:23:29.613Z,96630.19
2022-09-18T13:26:07.003Z,96627.91
2022-09-18T13:28:42.960Z,96627.11
2022-09-18T13:31:38.587Z,96630.47
2022-09-18T13:34:32.715Z,96625.09
2022-09-18T13:37:20.018Z,96625.41
2022-09-18T13:40:09.809Z,96632.04
2022-09-18T13:42:46.239Z,96627.56
2022-09-18T13:45:25.662Z,96624.59
2022-09-18T13:48:09.869Z,96626.58
2022-09-18T13:50:56.664Z,96625.34
2022-09-18T13:54:33.124Z,96638.79
2022-09-18T13:58:47.054Z,96649.28
2022-09-18T14:16:33.241Z,96658.05
2022-09-18T14:20:22.220Z,96684.54
2022-09-18T14:23:18.284Z,96687.11
2022-09-18T14:25:57.254Z,96687.05
2022-09-18T14:28:41.260Z,96684.45
2022-09-18T14:31:29.264Z,96683.02
2022-09-18T14:34:26.923Z,96683.88
2022-09-18T14:38:36.863Z,96676.92
2022-09-18T14:42:19.308Z,96674.02
2022-09-18T14:46:01.183Z,96675.55
2022-09-18T14:49:50.240Z,96678.16
2022-09-18T14:52:32.384Z,96676.95
2022-09-18T14:55:29.238Z,96679.16
2022-09-18T14:58:14.918Z,96683.07
2022-09-18T15:01:02.729Z,96689.34
2022-09-18T15:03:45.404Z,96688.39
2022-09-18T15:06:27.359Z,96687.38
2022-09-18T15:09:09.522Z,96687.66
2022-09-18T15:12:06.479Z,96689.89
2022-09-18T15:15:06.098Z,96692.69
2022-09-18T15:17:55.176Z,96692.02
2022-09-18T15:20:35.743Z,96689.25
2022-09-18T15:23:29.516Z,96692.14
2022-09-18T15:26:18.269Z,96693.56
2022-09-18T15:29:01.963Z,96691.43
2022-09-18T15:31:46.884Z,96693.83
2022-09-18T15:34:27.083Z,96697.35
2022-09-18T15:37:09.356Z,96697.41
2022-09-18T15:39:57.183Z,96698.15
2022-09-18T15:42:44.344Z,96695.44
2022-09-18T15:45:34.955Z,96695.66
2022-09-18T15:48:36.045Z,96697.04
2022-09-18T15:51:18.119Z,96698.10
2022-09-18T15:55:07.876Z,96699.67
2022-09-18T15:59:01.260Z,96701.11
2022-09-18T16:02:40.046Z,96700.36
2022-09-18T16:06:28.114Z,96702.85
2022-09-18T16:09:11.376Z,96710.35
2022-09-18T16:11:49.013Z,96717.20
2022-09-18T16:14:47.940Z,96716.91
2022-09-18T16:17:44.233Z,96720.05
2022-09-18T16:20:35.899Z,96726.65
2022-09-18T16:24:21.182Z,96728.14
2022-09-18T16:28:00.427Z,96730.94
2022-09-18T16:31:37.785Z,96728.67
2022-09-18T16:35:15.629Z,96729.98
2022-09-18T16:37:50.806Z,96734.48
2022-09-18T16:40:28.677Z,96732.83
2022-09-18T16:43:05.274Z,96731.02
2022-09-18T16:45:42.518Z,96729.02
2022-09-18T16:48:19.425Z,96731.05
2022-09-18T16:50:55.089Z,96729.96
2022-09-18T16:54:30.025Z,96728.86
2022-09-18T16:58:05.811Z,96727.98
2022-09-18T17:02:03.283Z,96733.89
2022-09-18T17:05:39.885Z,96728.41
2022-09-18T17:09:13.290Z,96724.25
2022-09-18T17:12:47.817Z,96725.83
2022-09-18T17:16:44.249Z,96730.46
2022-09-18T17:20:30.685Z,96738.42
2022-09-18T17:23:37.851Z,96739.86
2022-09-18T17:26:13.476Z,96751.16
2022-09-18T17:29:03.112Z,96754.27
2022-09-18T17:31:52.475Z,96756.56
2022-09-18T17:34:37.109Z,96763.06
2022-09-18T17:37:14.631Z,96760.70
2022-09-18T17:39:53.846Z,96762.77
2022-09-18T17:42:28.659Z,96765.84
2022-09-18T17:45:03.327Z,96767.67
2022-09-18T17:47:38.433Z,96772.70
2022-09-18T17:50:14.357Z,96774.25
2022-09-18T17:52:49.341Z,96779.91
2022-09-18T17:55:27.300Z,96781.87
2022-09-18T17:58:04.762Z,96784.77
2022-09-18T18:00:42.952Z,96785.79
2022-09-18T18:03:22.251Z,96787.25
2022-09-18T18:06:00.179Z,96784.16
2022-09-18T18:08:37.758Z,96786.73
2022-09-18T18:11:17.280Z,96784.70
2022-09-18T18:13:54.159Z,96787.88
2022-09-18T18:16:31.478Z,96792.29
2022-09-18T18:19:12.913Z,96795.39
2022-09-18T18:21:48.719Z,96797.81
2022-09-18T18:24:24.422Z,96799.29
2022-09-18T18:26:59.962Z,96797.11
2022-09-18T18:29:39.044Z,96799.52
2022-09-18T18:32:13.394Z,96798.16
2022-09-18T18:34:47.974Z,96800.60
2022-09-18T18:37:25.694Z,96797.69
2022-09-18T18:41:05.127Z,96800.45
2022-09-18T18:51:38.157Z,96794.41
2022-09-18T18:54:12.349Z,96791.90
2022-09-18T18:56:47.207Z,96789.67
2022-09-18T18:59:24.911Z,96786.80
2022-09-18T19:02:01.625Z,96789.45
2022-09-18T19:04:39.006Z,96787.88
2022-09-18T19:07:13.278Z,96785.88
2022-09-18T19:09:48.874Z,96782.83
2022-09-18T19:12:22.938Z,96779.93
2022-09-18T19:14:57.332Z,96784.68
2022-09-18T19:17:31.056Z,96783.63
2022-09-18T19:20:06.328Z,96789.09
2022-09-18T19:22:41.134Z,96792.87
2022-09-18T19:25:17.365Z,96794.38
2022-09-18T19:27:56.025Z,96792.93
2022-09-18T19:30:30.241Z,96797.92
2022-09-18T19:33:04.906Z,96797.86
2022-09-18T19:35:40.899Z,96796.33
2022-09-18T19:38:21.325Z,96795.40
2022-09-18T19:40:57.292Z,96797.58
2022-09-18T19:43:34.936Z,96794.65
2022-09-18T19:46:14.372Z,96794.20
2022-09-18T19:48:48.634Z,96796.70
2022-09-18T19:51:23.775Z,96796.80
2022-09-18T19:53:57.890Z,96797.88
2022-09-18T19:56:42.990Z,96796.73
2022-09-18T19:59:18.988Z,96796.16
2022-09-18T20:01:54.286Z,96797.30
2022-09-18T20:04:28.491Z,96797.86
2022-09-18T20:07:02.700Z,96798.23
2022-09-18T20:10:38.375Z,96799.48
2022-09-18T20:14:13.828Z,96798.30
2022-09-18T20:21:18.438Z,96793.77
2022-09-18T20:23:57.943Z,96795.73
2022-09-18T20:26:32.399Z,96793.95
2022-09-18T20:29:06.257Z,96792.20
2022-09-18T20:31:40.928Z,96790.48
2022-09-18T20:34:15.369Z,96791.73
2022-09-18T20:36:52.679Z,96789.41
2022-09-18T20:39:27.577Z,96787.90
2022-09-18T20:42:02.787Z,96789.36
2022-09-18T20:44:36.906Z,96786.41
2022-09-18T20:47:10.967Z,96784.20
2022-09-18T20:49:46.683Z,96783.41
2022-09-18T20:52:22.007Z,96787.77
2022-09-18T20:54:55.979Z,96785.43
2022-09-18T20:57:34.387Z,96783.98
2022-09-18T21:00:21.261Z,96786.31
2022-09-18T21:02:56.375Z,96785.13
2022-09-18T21:05:30.427Z,96784.05
2022-09-18T21:08:05.325Z,96789.30
2022-09-18T21:10:47.454Z,96785.96
2022-09-18T21:13:21.792Z,96781.20
2022-09-18T21:15:55.660Z,96775.29
2022-09-18T21:18:30.241Z,96773.28
2022-09-18T21:21:10.187Z,96771.83
2022-09-18T21:23:59.335Z,96770.55
2022-09-18T21:26:34.530Z,96771.06
2022-09-18T21:29:12.989Z,96773.52
2022-09-18T21:31:48.281Z,96770.38
2022-09-18T21:34:27.829Z,96766.27
2022-09-18T21:37:04.463Z,96766.95
2022-09-18T21:39:38.795Z,96767.07
2022-09-18T21:42:13.276Z,96766.92
2022-09-18T21:44:48.325Z,96765.77
2022-09-18T21:47:22.362Z,96767.56
2022-09-18T21:49:57.089Z,96758.02
2022-09-18T21:52:30.662Z,96761.37
2022-09-18T21:55:02.416Z,96757.08
2022-09-18T21:57:37.062Z,96761.23
2022-09-18T22:00:13.446Z,96760.91
2022-09-18T22:02:47.548Z,96760.08
2022-09-18T22:05:22.150Z,96761.70
2022-09-18T22:07:59.281Z,96760.37
2022-09-18T22:11:37.589Z,96760.38
2022-09-18T22:15:16.931Z,96759.79
2022-09-18T22:22:08.982Z,96750.25
2022-09-18T22:24:40.784Z,96745.34
2022-09-18T22:27:13.110Z,96746.08
2022-09-18T22:29:45.301Z,96739.89
2022-09-18T22:32:17.251Z,96736.73
2022-09-18T22:34:50.716Z,96733.66
2022-09-18T22:37:22.636Z,96734.99
2022-09-18T22:40:54.333Z,96740.67
2022-09-18T22:44:26.377Z,96747.31
2022-09-18T22:51:28.355Z,96748.05
2022-09-18T22:54:02.693Z,96747.95
2022-09-18T22:56:36.237Z,96741.14
2022-09-18T22:59:07.997Z,96740.35
2022-09-18T23:01:42.713Z,96737.23
2022-09-18T23:04:14.547Z,96734.79
2022-09-18T23:06:46.522Z,96739.24
2022-09-18T23:09:19.251Z,96733.00
2022-09-18T23:11:53.573Z,96729.54
2022-09-18T23:14:27.955Z,96723.48
2022-09-18T23:17:01.152Z,96718.76
2022-09-18T23:19:35.260Z,96719.51
2022-09-18T23:22:09.820Z,96719.80
2022-09-18T23:24:41.655Z,96721.08
2022-09-18T23:27:13.677Z,96720.61
2022-09-18T23:29:45.408Z,96721.57
2022-09-18T23:32:17.988Z,96722.74
2022-09-18T23:34:50.498Z,96721.27
2022-09-18T23:37:22.276Z,96721.57
2022-09-18T23:39:54.047Z,96719.41
2022-09-18T23:42:26.601Z,96713.73
2022-09-18T23:44:58.901Z,96713.16
2022-09-18T23:47:30.052Z,96708.91
2022-09-18T23:50:01.909Z,96712.52
2022-09-18T23:52:33.590Z,96710.73
2022-09-18T23:55:05.710Z,96708.95
2022-09-18T23:57:37.407Z,96713.16
